createdAt,value
2018-08-13T00:01:28.899Z,99847.89
2018-08-13T00:03:56.780Z,99837.92
2018-08-13T00:06:24.619Z,99836.31
2018-08-13T00:08:52.477Z,99831.73
2018-08-13T00:11:20.394Z,99836.53
2018-08-13T00:13:48.307Z,99833.73
2018-08-13T00:16:16.108Z,99839.16
2018-08-13T00:18:43.996Z,99840.48
2018-08-13T00:21:11.915Z,99827.25
2018-08-13T00:23:39.741Z,99836.92
2018-08-13T00:26:07.579Z,99830.42
2018-08-13T00:28:35.436Z,99821.06
2018-08-13T00:31:03.332Z,99825.44
2018-08-13T00:33:31.189Z,99822.77
2018-08-13T00:35:58.955Z,99823.97
2018-08-13T00:38:26.748Z,99813.23
2018-08-13T00:40:54.608Z,99817.98
2018-08-13T00:43:22.447Z,99810.48
2018-08-13T00:45:50.328Z,99809.19
2018-08-13T00:48:18.127Z,99809.70
2018-08-13T00:50:45.976Z,99810.83
2018-08-13T00:53:13.879Z,99805.56
2018-08-13T00:55:41.724Z,99801.44
2018-08-13T00:58:09.524Z,99801.78
2018-08-13T01:00:37.442Z,99800.59
2018-08-13T01:03:06.431Z,99803.32
2018-08-13T01:05:34.220Z,99802.34
2018-08-13T01:08:02.091Z,99793.10
2018-08-13T01:10:29.867Z,99794.82
2018-08-13T01:12:57.653Z,99781.38
2018-08-13T01:15:25.539Z,99786.70
2018-08-13T01:17:53.387Z,99780.94
2018-08-13T01:20:21.583Z,99777.31
2018-08-13T01:22:49.466Z,99781.75
2018-08-13T01:25:19.318Z,99773.70
2018-08-13T01:27:47.127Z,99765.99
2018-08-13T01:30:16.667Z,99768.97
2018-08-13T01:32:44.515Z,99760.89
2018-08-13T01:35:12.385Z,99761.15
2018-08-13T01:37:40.219Z,99761.81
2018-08-13T01:40:09.763Z,99767.29
2018-08-13T01:42:37.797Z,99772.55
2018-08-13T01:45:08.583Z,99763.20
2018-08-13T01:47:36.508Z,99769.30
2018-08-13T01:50:07.271Z,99771.27
2018-08-13T01:52:35.151Z,99764.77
2018-08-13T01:55:03.471Z,99774.96
2018-08-13T01:57:31.303Z,99767.02
2018-08-13T01:59:59.151Z,99771.16
2018-08-13T02:02:27.011Z,99773.32
2018-08-13T02:04:54.792Z,99779.41
2018-08-13T02:07:22.727Z,99776.10
2018-08-13T02:09:50.652Z,99788.52
2018-08-13T02:12:18.599Z,99786.59
2018-08-13T02:14:46.364Z,99776.69
2018-08-13T02:17:14.168Z,99773.67
2018-08-13T02:19:41.932Z,99775.34
2018-08-13T02:22:09.888Z,99774.30
2018-08-13T02:24:37.660Z,99762.27
2018-08-13T02:27:05.574Z,99755.92
2018-08-13T02:29:33.419Z,99753.20
2018-08-13T02:32:01.236Z,99747.39
2018-08-13T02:34:29.048Z,99743.27
2018-08-13T02:36:56.920Z,99736.44
2018-08-13T02:39:24.792Z,99735.06
2018-08-13T02:41:52.583Z,99731.73
2018-08-13T02:44:20.456Z,99731.19
2018-08-13T02:46:48.271Z,99727.55
2018-08-13T02:49:16.131Z,99732.55
2018-08-13T02:51:44.024Z,99742.13
2018-08-13T02:54:11.913Z,99739.69
2018-08-13T02:56:39.807Z,99739.19
2018-08-13T02:59:07.651Z,99733.73
2018-08-13T03:01:35.573Z,99728.73
2018-08-13T03:04:03.687Z,99720.78
2018-08-13T03:06:31.598Z,99712.22
2018-08-13T03:08:59.512Z,99703.13
2018-08-13T03:11:27.253Z,99702.02
2018-08-13T03:13:55.121Z,99707.05
2018-08-13T03:16:24.226Z,99704.27
2018-08-13T03:18:52.374Z,99701.52
2018-08-13T03:21:20.280Z,99697.95
2018-08-13T03:23:48.196Z,99699.33
2018-08-13T03:26:16.020Z,99707.05
2018-08-13T03:28:43.817Z,99703.98
2018-08-13T03:31:11.635Z,99702.60
2018-08-13T03:33:39.523Z,99706.52
2018-08-13T03:36:07.751Z,99708.44
2018-08-13T03:38:35.639Z,99707.39
2018-08-13T03:41:03.595Z,99705.48
2018-08-13T03:43:31.441Z,99706.59
2018-08-13T03:45:59.300Z,99701.91
2018-08-13T03:48:27.142Z,99693.72
2018-08-13T03:50:55.002Z,99690.41
2018-08-13T03:53:22.964Z,99700.91
2018-08-13T03:55:50.804Z,99694.59
2018-08-13T03:58:18.715Z,99696.75
2018-08-13T04:00:46.597Z,99680.00
2018-08-13T04:03:14.425Z,99676.68
2018-08-13T04:05:42.306Z,99672.53
2018-08-13T04:08:10.182Z,99672.58
2018-08-13T04:10:38.104Z,99672.04
2018-08-13T04:13:05.915Z,99668.71
2018-08-13T04:15:33.824Z,99661.84
2018-08-13T04:18:01.620Z,99648.06
2018-08-13T04:20:29.493Z,99638.13
2018-08-13T04:22:57.359Z,99637.86
2018-08-13T04:25:25.299Z,99642.26
2018-08-13T04:27:53.155Z,99648.29
2018-08-13T04:30:20.977Z,99650.45
2018-08-13T04:32:48.821Z,99653.45
2018-08-13T04:35:16.647Z,99652.64
2018-08-13T04:37:45.415Z,99647.34
2018-08-13T04:40:15.384Z,99652.59
2018-08-13T04:42:44.178Z,99655.84
2018-08-13T04:45:12.115Z,99655.81
2018-08-13T04:47:42.802Z,99651.13
2018-08-13T04:50:10.619Z,99653.30
2018-08-13T04:52:38.475Z,99661.52
2018-08-13T04:55:07.945Z,99652.97
2018-08-13T04:57:35.768Z,99636.13
2018-08-13T05:00:04.918Z,99628.13
2018-08-13T05:02:32.723Z,99615.41
2018-08-13T05:05:00.578Z,99619.17
2018-08-13T05:07:28.523Z,99624.27
2018-08-13T05:09:56.271Z,99619.50
2018-08-13T05:12:24.097Z,99622.59
2018-08-13T05:14:51.991Z,99617.20
2018-08-13T05:17:19.951Z,99628.08
2018-08-13T05:19:47.755Z,99630.89
2018-08-13T05:22:15.631Z,99635.80
2018-08-13T05:24:43.792Z,99630.34
2018-08-13T05:27:11.651Z,99627.52
2018-08-13T05:29:39.449Z,99634.48
2018-08-13T05:32:07.724Z,99645.55
2018-08-13T05:34:35.532Z,99639.62
2018-08-13T05:37:03.452Z,99639.98
2018-08-13T05:39:31.324Z,99642.23
2018-08-13T05:41:59.159Z,99656.99
2018-08-13T05:44:27.018Z,99657.27
2018-08-13T05:46:54.904Z,99653.09
2018-08-13T05:49:22.811Z,99653.36
2018-08-13T05:51:50.756Z,99650.80
2018-08-13T05:54:18.831Z,99651.83
2018-08-13T05:56:46.728Z,99654.86
2018-08-13T05:59:14.643Z,99648.81
2018-08-13T06:01:42.636Z,99654.36
2018-08-13T06:04:10.455Z,99661.30
2018-08-13T06:06:38.219Z,99661.78
2018-08-13T06:09:10.594Z,99682.78
2018-08-13T06:11:38.492Z,99671.19
2018-08-13T06:14:06.443Z,99691.23
2018-08-13T06:16:34.295Z,99687.77
2018-08-13T06:19:02.211Z,99708.23
2018-08-13T06:21:30.076Z,99720.28
2018-08-13T06:23:57.944Z,99721.09
2018-08-13T06:26:25.760Z,99769.84
2018-08-13T06:28:53.601Z,99756.11
2018-08-13T06:31:21.439Z,99774.06
2018-08-13T06:33:49.290Z,99757.66
2018-08-13T06:36:17.159Z,99766.41
2018-08-13T06:38:45.048Z,99788.51
2018-08-13T06:41:12.955Z,99820.80
2018-08-13T06:43:40.795Z,99831.63
2018-08-13T06:46:08.707Z,99838.18
2018-08-13T06:48:36.602Z,99843.52
2018-08-13T06:51:04.503Z,99832.33
2018-08-13T06:53:33.647Z,99830.40
2018-08-13T06:56:01.456Z,99833.42
2018-08-13T06:58:29.311Z,99839.81
2018-08-13T07:00:57.089Z,99844.10
2018-08-13T07:03:24.949Z,99853.50
2018-08-13T07:05:52.783Z,99860.31
2018-08-13T07:08:20.623Z,99854.77
2018-08-13T07:10:48.424Z,99859.80
2018-08-13T07:13:16.259Z,99849.26
2018-08-13T07:15:44.141Z,99856.73
2018-08-13T07:18:11.871Z,99857.53
2018-08-13T07:20:39.708Z,99846.94
2018-08-13T07:23:07.663Z,99856.34
2018-08-13T07:25:35.535Z,99869.80
2018-08-13T07:28:03.498Z,99878.29
2018-08-13T07:30:31.315Z,99873.63
2018-08-13T07:32:59.082Z,99879.93
2018-08-13T07:35:26.943Z,99883.31
2018-08-13T07:37:54.991Z,99882.11
2018-08-13T07:40:22.859Z,99886.83
2018-08-13T07:42:50.731Z,99880.34
2018-08-13T07:45:18.962Z,99889.38
2018-08-13T07:47:52.463Z,99887.37
2018-08-13T07:50:20.399Z,99889.11
2018-08-13T07:52:48.429Z,99900.64
2018-08-13T07:55:19.574Z,99896.80
2018-08-13T07:57:47.586Z,99910.00
2018-08-13T08:00:17.771Z,99906.47
2018-08-13T08:02:52.586Z,99911.22
2018-08-13T08:05:22.237Z,99912.69
2018-08-13T08:07:50.246Z,99924.89
2018-08-13T08:10:24.121Z,99921.86
2018-08-13T08:12:52.219Z,99919.81
2018-08-13T08:15:20.177Z,99922.17
2018-08-13T08:17:49.361Z,99924.33
2018-08-13T08:20:17.342Z,99942.94
2018-08-13T08:22:45.195Z,99946.70
2018-08-13T08:25:16.688Z,99946.31
2018-08-13T08:27:44.976Z,99943.39
2018-08-13T08:30:13.340Z,99933.52
2018-08-13T08:32:41.309Z,99931.55
2018-08-13T08:35:11.215Z,99923.89
2018-08-13T08:37:39.689Z,99920.05
2018-08-13T08:40:13.010Z,99925.50
2018-08-13T08:42:40.999Z,99928.41
2018-08-13T08:45:14.379Z,99929.48
2018-08-13T08:47:42.761Z,99935.34
2018-08-13T08:50:10.768Z,99937.92
2018-08-13T08:52:38.734Z,99936.90
2018-08-13T08:55:07.527Z,99931.64
2018-08-13T08:57:35.415Z,99924.73
2018-08-13T09:00:04.370Z,99928.86
2018-08-13T09:02:32.182Z,99918.86
2018-08-13T09:05:00.037Z,99904.27
2018-08-13T09:07:27.869Z,99897.67
2018-08-13T09:09:55.748Z,99893.14
2018-08-13T09:12:23.650Z,99893.89
2018-08-13T09:14:51.542Z,99890.25
2018-08-13T09:17:19.414Z,99883.25
2018-08-13T09:20:04.602Z,99885.06
2018-08-13T09:22:49.617Z,99896.34
2018-08-13T09:25:35.448Z,99902.92
2018-08-13T09:28:20.531Z,99913.16
2018-08-13T09:31:05.668Z,99919.69
2018-08-13T09:33:50.840Z,99908.75
2018-08-13T09:36:18.755Z,99907.14
2018-08-13T09:38:46.648Z,99903.47
2018-08-13T09:41:14.463Z,99895.02
2018-08-13T09:43:42.284Z,99886.89
2018-08-13T09:46:10.213Z,99885.64
2018-08-13T09:48:37.992Z,99877.42
2018-08-13T09:51:05.903Z,99883.06
2018-08-13T09:53:33.700Z,99892.48
2018-08-13T09:56:01.539Z,99900.70
2018-08-13T09:58:29.409Z,99901.10
2018-08-13T10:01:02.871Z,99883.91
2018-08-13T10:03:30.748Z,99878.52
2018-08-13T10:05:58.626Z,99872.55
2018-08-13T10:08:26.512Z,99878.09
2018-08-13T10:10:54.449Z,99883.53
2018-08-13T10:13:22.256Z,99884.17
2018-08-13T10:15:50.023Z,99889.33
2018-08-13T10:18:17.908Z,99888.73
2018-08-13T10:20:45.754Z,99893.75
2018-08-13T10:23:13.667Z,99887.17
2018-08-13T10:25:41.638Z,99884.00
2018-08-13T10:28:09.585Z,99892.08
2018-08-13T10:30:37.388Z,99892.47
2018-08-13T10:33:05.775Z,99899.41
2018-08-13T10:35:33.676Z,99904.70
2018-08-13T10:38:01.592Z,99903.32
2018-08-13T10:40:29.440Z,99898.48
2018-08-13T10:42:57.367Z,99897.81
2018-08-13T10:45:25.245Z,99895.17
2018-08-13T10:47:53.104Z,99903.25
2018-08-13T10:50:20.988Z,99896.56
2018-08-13T10:52:48.967Z,99901.41
2018-08-13T10:55:16.772Z,99900.52
2018-08-13T10:57:44.726Z,99892.56
2018-08-13T11:00:15.832Z,99884.88
2018-08-13T11:02:43.949Z,99883.12
2018-08-13T11:05:12.819Z,99877.45
2018-08-13T11:07:40.766Z,99874.55
2018-08-13T11:10:13.306Z,99872.19
2018-08-13T11:12:41.148Z,99856.55
2018-08-13T11:15:15.990Z,99862.80
2018-08-13T11:17:43.899Z,99863.87
2018-08-13T11:20:11.780Z,99856.69
2018-08-13T11:22:40.491Z,99850.70
2018-08-13T11:25:10.241Z,99854.13
2018-08-13T11:27:38.079Z,99852.57
2018-08-13T11:30:11.787Z,99856.73
2018-08-13T11:32:39.646Z,99842.00
2018-08-13T11:35:07.875Z,99852.98
2018-08-13T11:37:36.119Z,99850.55
2018-08-13T11:40:08.920Z,99848.48
2018-08-13T11:42:36.867Z,99856.95
2018-08-13T11:45:05.251Z,99854.31
2018-08-13T11:47:33.068Z,99848.81
2018-08-13T11:50:00.894Z,99856.41
2018-08-13T11:52:28.799Z,99844.99
2018-08-13T11:54:56.572Z,99846.27
2018-08-13T11:57:24.525Z,99847.48
2018-08-13T11:59:52.424Z,99843.00
2018-08-13T12:02:20.304Z,99831.90
2018-08-13T12:04:48.169Z,99837.45
2018-08-13T12:07:16.066Z,99838.66
2018-08-13T12:09:43.895Z,99833.56
2018-08-13T12:12:11.809Z,99834.55
2018-08-13T12:14:39.611Z,99833.35
2018-08-13T12:17:07.519Z,99825.87
2018-08-13T12:19:35.463Z,99828.27
2018-08-13T12:22:03.247Z,99834.27
2018-08-13T12:24:31.071Z,99832.85
2018-08-13T12:26:58.898Z,99833.04
2018-08-13T12:29:26.712Z,99831.13
2018-08-13T12:31:54.591Z,99839.17
2018-08-13T12:34:22.404Z,99846.49
2018-08-13T12:36:54.796Z,99841.99
2018-08-13T12:39:22.742Z,99835.70
2018-08-13T12:41:50.531Z,99837.38
2018-08-13T12:44:18.328Z,99836.12
2018-08-13T12:46:46.123Z,99842.00
2018-08-13T12:49:13.980Z,99829.93
2018-08-13T12:51:41.836Z,99825.33
2018-08-13T12:54:09.639Z,99819.17
2018-08-13T12:56:37.491Z,99814.77
2018-08-13T12:59:05.436Z,99806.20
2018-08-13T13:01:33.324Z,99797.63
2018-08-13T13:04:01.176Z,99787.41
2018-08-13T13:06:29.059Z,99785.97
2018-08-13T13:08:56.928Z,99780.07
2018-08-13T13:11:24.962Z,99785.23
2018-08-13T13:13:52.886Z,99776.08
2018-08-13T13:16:20.732Z,99766.26
2018-08-13T13:18:48.604Z,99766.59
2018-08-13T13:21:16.407Z,99761.55
2018-08-13T13:23:44.224Z,99759.94
2018-08-13T13:26:12.103Z,99767.20
2018-08-13T13:28:40.333Z,99758.69
2018-08-13T13:31:08.307Z,99756.53
2018-08-13T13:33:36.202Z,99753.69
2018-08-13T13:36:04.118Z,99747.52
2018-08-13T13:38:32.046Z,99743.35
2018-08-13T13:40:59.924Z,99744.66
2018-08-13T13:43:27.772Z,99736.56
2018-08-13T13:45:55.618Z,99743.77
2018-08-13T13:48:23.559Z,99733.88
2018-08-13T13:50:51.591Z,99732.45
2018-08-13T13:53:19.446Z,99728.29
2018-08-13T13:55:47.383Z,99733.53
2018-08-13T13:58:16.476Z,99728.50
2018-08-13T14:00:44.436Z,99722.83
2018-08-13T14:03:12.301Z,99726.30
2018-08-13T14:05:40.203Z,99721.92
2018-08-13T14:08:08.051Z,99720.03
2018-08-13T14:10:35.942Z,99713.37
2018-08-13T14:13:03.820Z,99710.84
2018-08-13T14:15:31.742Z,99694.42
2018-08-13T14:17:59.569Z,99703.21
2018-08-13T14:20:27.498Z,99700.88
2018-08-13T14:22:55.375Z,99694.95
2018-08-13T14:25:23.178Z,99702.05
2018-08-13T14:27:51.156Z,99703.98
2018-08-13T14:30:22.877Z,99700.30
2018-08-13T14:32:50.832Z,99696.37
2018-08-13T14:35:20.241Z,99691.79
2018-08-13T14:37:48.289Z,99686.00
2018-08-13T14:40:16.122Z,99678.02
2018-08-13T14:42:44.331Z,99681.28
2018-08-13T14:45:13.876Z,99676.41
2018-08-13T14:47:45.183Z,99685.70
2018-08-13T14:50:13.481Z,99671.66
2018-08-13T14:52:42.591Z,99679.11
2018-08-13T14:55:11.485Z,99684.27
2018-08-13T14:57:39.448Z,99688.60
2018-08-13T15:00:15.188Z,99675.00
2018-08-13T15:02:43.032Z,99678.03
2018-08-13T15:05:11.031Z,99679.98
2018-08-13T15:07:38.878Z,99681.87
2018-08-13T15:10:13.988Z,99680.81
2018-08-13T15:12:45.223Z,99679.28
2018-08-13T15:15:13.287Z,99680.81
2018-08-13T15:17:41.387Z,99680.13
2018-08-13T15:20:17.175Z,99677.56
2018-08-13T15:22:45.087Z,99665.56
2018-08-13T15:25:13.080Z,99667.64
2018-08-13T15:27:40.904Z,99663.56
2018-08-13T15:30:12.952Z,99658.18
2018-08-13T15:32:41.386Z,99643.61
2018-08-13T15:35:09.418Z,99642.08
2018-08-13T15:37:37.261Z,99632.30
2018-08-13T15:40:06.747Z,99627.17
2018-08-13T15:42:35.159Z,99614.79
2018-08-13T15:45:03.815Z,99620.84
2018-08-13T15:47:31.698Z,99623.31
2018-08-13T15:49:59.495Z,99621.11
2018-08-13T15:52:27.339Z,99630.17
2018-08-13T15:54:55.107Z,99622.73
2018-08-13T15:57:22.964Z,99620.98
2018-08-13T15:59:50.892Z,99621.94
2018-08-13T16:02:18.702Z,99617.17
2018-08-13T16:04:46.561Z,99614.59
2018-08-13T16:07:14.442Z,99611.00
2018-08-13T16:09:42.307Z,99619.41
2018-08-13T16:12:10.304Z,99614.40
2018-08-13T16:14:38.359Z,99616.96
2018-08-13T16:17:06.472Z,99616.30
2018-08-13T16:19:34.561Z,99619.80
2018-08-13T16:22:02.509Z,99621.53
2018-08-13T16:24:30.375Z,99623.64
2018-08-13T16:26:58.206Z,99622.93
2018-08-13T16:29:26.037Z,99622.70
2018-08-13T16:31:53.915Z,99625.50
2018-08-13T16:34:21.775Z,99626.21
2018-08-13T16:36:49.649Z,99624.91
2018-08-13T16:39:17.544Z,99629.81
2018-08-13T16:41:45.344Z,99618.28
2018-08-13T16:44:13.087Z,99614.45
2018-08-13T16:46:40.883Z,99607.23
2018-08-13T16:49:08.783Z,99619.91
2018-08-13T16:51:36.634Z,99616.89
2018-08-13T16:54:04.656Z,99620.27
2018-08-13T16:56:32.499Z,99613.28
2018-08-13T16:59:00.267Z,99614.45
2018-08-13T17:01:28.267Z,99617.70
2018-08-13T17:03:56.143Z,99623.05
2018-08-13T17:06:23.955Z,99619.80
2018-08-13T17:08:51.908Z,99614.44
2018-08-13T17:11:19.970Z,99615.38
2018-08-13T17:13:47.934Z,99619.69
2018-08-13T17:16:16.048Z,99626.39
2018-08-13T17:18:43.851Z,99622.06
2018-08-13T17:21:11.736Z,99623.59
2018-08-13T17:23:39.619Z,99623.94
2018-08-13T17:26:07.460Z,99620.45
2018-08-13T17:28:35.265Z,99626.23
2018-08-13T17:31:03.147Z,99621.13
2018-08-13T17:33:31.020Z,99615.40
2018-08-13T17:35:58.835Z,99617.38
2018-08-13T17:38:26.710Z,99618.31
2018-08-13T17:40:54.519Z,99625.50
2018-08-13T17:43:22.352Z,99627.66
2018-08-13T17:45:50.360Z,99631.72
2018-08-13T17:48:18.123Z,99642.53
2018-08-13T17:50:45.954Z,99639.67
2018-08-13T17:53:13.787Z,99643.63
2018-08-13T17:55:41.604Z,99640.60
2018-08-13T17:58:09.406Z,99642.03
2018-08-13T18:00:37.203Z,99645.13
2018-08-13T18:03:05.302Z,99643.08
2018-08-13T18:05:33.271Z,99645.52
2018-08-13T18:08:01.191Z,99647.06
2018-08-13T18:10:31.240Z,99647.30
2018-08-13T18:13:00.974Z,99633.98
2018-08-13T18:15:29.243Z,99643.28
2018-08-13T18:17:57.216Z,99642.77
2018-08-13T18:20:25.147Z,99649.39
2018-08-13T18:22:53.329Z,99651.67
2018-08-13T18:25:21.408Z,99648.26
2018-08-13T18:27:50.271Z,99654.70
2018-08-13T18:30:22.782Z,99656.61
2018-08-13T18:32:51.137Z,99690.21
2018-08-13T18:35:19.349Z,99734.75
2018-08-13T18:37:47.568Z,99751.92
2018-08-13T18:40:27.938Z,99757.95
2018-08-13T18:42:55.839Z,99742.81
2018-08-13T18:45:23.655Z,99744.31
2018-08-13T18:47:51.912Z,99742.38
2018-08-13T18:50:21.165Z,99740.49
2018-08-13T18:52:49.419Z,99751.05
2018-08-13T18:55:20.584Z,99741.20
2018-08-13T18:57:49.015Z,99748.00
2018-08-13T19:00:23.960Z,99750.20
2018-08-13T19:02:51.931Z,99747.24
2018-08-13T19:05:20.737Z,99743.64
2018-08-13T19:07:49.934Z,99747.88
2018-08-13T19:10:18.575Z,99751.36
2018-08-13T19:12:46.479Z,99745.12
2018-08-13T19:15:16.635Z,99748.91
2018-08-13T19:17:44.479Z,99749.20
2018-08-13T19:20:13.083Z,99746.42
2018-08-13T19:22:41.063Z,99751.21
2018-08-13T19:25:12.913Z,99751.21
2018-08-13T19:27:40.937Z,99751.09
2018-08-13T19:30:11.272Z,99753.95
2018-08-13T19:32:39.238Z,99760.45
2018-08-13T19:35:08.236Z,99770.53
2018-08-13T19:37:36.135Z,99770.75
2018-08-13T19:40:07.583Z,99764.30
2018-08-13T19:42:35.468Z,99770.27
2018-08-13T19:45:05.407Z,99771.83
2018-08-13T19:47:33.282Z,99773.85
2018-08-13T19:50:01.672Z,99774.12
2018-08-13T19:52:29.630Z,99778.53
2018-08-13T19:54:57.415Z,99787.19
2018-08-13T19:57:25.520Z,99786.83
2018-08-13T19:59:54.036Z,99792.79
2018-08-13T20:02:21.887Z,99787.86
2018-08-13T20:04:49.752Z,99790.75
2018-08-13T20:07:17.840Z,99789.40
2018-08-13T20:09:45.708Z,99800.42
2018-08-13T20:12:13.471Z,99801.12
2018-08-13T20:14:41.288Z,99800.91
2018-08-13T20:17:09.119Z,99805.52
2018-08-13T20:19:37.022Z,99800.50
2018-08-13T20:22:10.076Z,99796.13
2018-08-13T20:24:37.943Z,99806.17
2018-08-13T20:27:05.974Z,99808.50
2018-08-13T20:29:33.879Z,99814.86
2018-08-13T20:32:01.827Z,99813.72
2018-08-13T20:34:29.715Z,99817.73
2018-08-13T20:36:57.698Z,99814.70
2018-08-13T20:39:25.775Z,99817.31
2018-08-13T20:41:53.742Z,99824.49
2018-08-13T20:44:21.576Z,99832.45
2018-08-13T20:46:49.461Z,99830.04
2018-08-13T20:49:17.337Z,99834.20
2018-08-13T20:51:45.063Z,99836.98
2018-08-13T20:54:13.167Z,99834.96
2018-08-13T20:56:41.196Z,99840.63
2018-08-13T20:59:09.149Z,99841.58
2018-08-13T21:01:37.059Z,99842.20
2018-08-13T21:04:06.601Z,99840.98
2018-08-13T21:06:34.433Z,99842.23
2018-08-13T21:09:04.452Z,99840.03
2018-08-13T21:11:32.231Z,99840.67
2018-08-13T21:14:00.125Z,99840.70
2018-08-13T21:16:27.963Z,99838.05
2018-08-13T21:18:55.879Z,99841.27
2018-08-13T21:21:23.782Z,99843.19
2018-08-13T21:23:51.762Z,99858.29
2018-08-13T21:26:20.183Z,99861.06
2018-08-13T21:28:47.968Z,99860.74
2018-08-13T21:31:16.142Z,99867.27
2018-08-13T21:33:43.933Z,99863.02
2018-08-13T21:36:18.037Z,99868.51
2018-08-13T21:38:48.920Z,99865.55
2018-08-13T21:41:20.375Z,99873.05
2018-08-13T21:43:53.429Z,99876.58
2018-08-13T21:46:21.331Z,99876.39
2018-08-13T21:48:49.691Z,99880.95
2018-08-13T21:51:17.632Z,99878.12
2018-08-13T21:53:45.551Z,99879.03
2018-08-13T21:56:13.348Z,99885.92
2018-08-13T21:58:42.292Z,99889.05
2018-08-13T22:01:16.099Z,99892.70
2018-08-13T22:03:44.090Z,99898.30
2018-08-13T22:06:12.749Z,99894.43
2018-08-13T22:08:40.607Z,99898.08
2018-08-13T22:11:09.051Z,99903.44
2018-08-13T22:13:36.991Z,99912.41
2018-08-13T22:16:05.032Z,99915.23
2018-08-13T22:18:32.857Z,99919.56
2018-08-13T22:21:01.634Z,99918.00
2018-08-13T22:23:29.715Z,99911.48
2018-08-13T22:26:00.802Z,99910.03
2018-08-13T22:28:31.692Z,99914.30
2018-08-13T22:31:06.065Z,99913.98
2018-08-13T22:33:34.100Z,99915.28
2018-08-13T22:36:02.081Z,99916.09
2018-08-13T22:38:30.044Z,99913.89
2018-08-13T22:40:58.279Z,99912.17
2018-08-13T22:43:26.201Z,99910.62
2018-08-13T22:45:54.075Z,99914.63
2018-08-13T22:48:21.930Z,99915.51
2018-08-13T22:50:49.696Z,99912.03
2018-08-13T22:53:18.680Z,99920.31
2018-08-13T22:55:46.556Z,99913.39
2018-08-13T22:58:14.401Z,99911.38
2018-08-13T23:00:42.249Z,99922.94
2018-08-13T23:03:10.173Z,99924.85
2018-08-13T23:05:38.165Z,99931.80
2018-08-13T23:08:06.572Z,99935.42
2018-08-13T23:10:34.392Z,99939.67
2018-08-13T23:13:02.316Z,99946.14
2018-08-13T23:15:30.154Z,99948.91
2018-08-13T23:17:58.000Z,99955.84
2018-08-13T23:20:27.913Z,99961.77
2018-08-13T23:22:57.883Z,99961.13
2018-08-13T23:25:26.208Z,99966.73
2018-08-13T23:27:55.187Z,99966.78
2018-08-13T23:30:23.180Z,99961.38
2018-08-13T23:32:52.242Z,99967.42
2018-08-13T23:35:20.851Z,99961.98
2018-08-13T23:37:49.043Z,99966.96
2018-08-13T23:40:17.116Z,99966.96
2018-08-13T23:42:45.075Z,99969.11
2018-08-13T23:45:15.792Z,99967.91
2018-08-13T23:47:43.649Z,99966.03
2018-08-13T23:50:17.116Z,99974.95
2018-08-13T23:52:45.116Z,99972.52
2018-08-13T23:55:23.682Z,99973.64
2018-08-13T23:57:51.532Z,99969.67
